Time;durP1;ratioP1;P1;durP2;ratioP2;P2;SDS_P1;SDS_P2;PMS_P1;PMS_P2;Temp;Humidity;BMP_temperature;BMP_pressure;BME280_temperature;BME280_humidity;BME280_pressure;Samples;Min_cycle;Max_cycle;Signal;HPM_P1;HPM_P2
2022/10/28 11:45:52;;;;;;;;;23.00;20.60;;;;;;;;5102889;27;13513;-72
2022/10/28 11:48:43;;;;;;;;;18.00;18.00;;;;;;;;5103321;28;13529;-72
2022/10/28 11:51:13;;;;;;;;;16.25;12.25;;;;;;;;5093552;28;13482;-73
2022/10/28 11:53:38;;;;;;;;;20.00;20.00;;;;;;;;5102957;28;13490;-72
2022/10/28 11:56:20;;;;;;;;;20.00;18.50;;;;;;;;5101089;28;13546;-72
2022/10/28 11:58:54;;;;;;;;;19.75;19.75;;;;;;;;5105769;28;13619;-73
2022/10/28 12:01:22;;;;;;;;;21.25;17.50;;;;;;;;5105967;28;13476;-71
2022/10/28 12:03:57;;;;;;;;;16.00;14.75;;;;;;;;5103363;28;13665;-72
2022/10/28 12:06:45;;;;;;;;;16.80;16.60;;;;;;;;5102925;28;13341;-71
2022/10/28 12:09:29;;;;;;;;;19.20;19.20;;;;;;;;5099624;28;13595;-74
2022/10/28 12:12:13;;;;;;;;;18.20;16.20;;;;;;;;5103595;27;14276;-72
2022/10/28 12:15:05;;;;;;;;;18.50;18.50;;;;;;;;5121184;27;13523;-71
2022/10/28 12:17:30;;;;;;;;;19.00;16.40;;;;;;;;5093400;28;13546;-69
2022/10/28 12:19:58;;;;;;;;;18.50;18.50;;;;;;;;5102609;28;13534;-70
2022/10/28 12:22:32;;;;;;;;;21.25;20.00;;;;;;;;5102263;28;13491;-70
2022/10/28 12:25:06;;;;;;;;;19.00;19.00;;;;;;;;5102366;28;14318;-71
2022/10/28 12:27:39;;;;;;;;;19.25;16.50;;;;;;;;5101026;28;13528;-70
2022/10/28 12:30:25;;;;;;;;;21.60;18.20;;;;;;;;5102073;28;13618;-69
2022/10/28 12:33:03;;;;;;;;;18.00;17.25;;;;;;;;5102363;28;13538;-69
2022/10/28 12:35:33;;;;;;;;;21.00;19.00;;;;;;;;5101684;28;13559;-70
2022/10/28 12:38:17;;;;;;;;;17.75;17.75;;;;;;;;5096580;28;13476;-70
2022/10/28 12:40:51;;;;;;;;;20.60;18.60;;;;;;;;5099987;28;13580;-70
2022/10/28 12:43:28;;;;;;;;;18.00;17.00;;;;;;;;5115058;27;13504;-70
2022/10/28 12:45:54;;;;;;;;;18.00;16.00;;;;;;;;5120183;27;13582;-70
2022/10/28 12:48:25;;;;;;;;;16.67;14.67;;;;;;;;5120301;27;13467;-69
2022/10/28 12:50:53;;;;;;;;;18.00;17.00;;;;;;;;5120307;27;13461;-71
2022/10/28 12:53:38;;;;;;;;;16.80;16.40;;;;;;;;5118520;27;13488;-68
2022/10/28 12:56:08;;;;;;;;;20.00;18.00;;;;;;;;5114078;27;13467;-73
2022/10/28 12:58:46;;;;;;;;;17.25;16.00;;;;;;;;5105341;28;13614;-72
2022/10/28 13:01:16;;;;;;;;;18.25;17.25;;;;;;;;5076327;28;13554;-73
2022/10/28 13:03:41;;;;;;;;;18.60;18.60;;;;;;;;5087401;28;13669;-73
2022/10/28 13:06:26;;;;;;;;;20.25;20.25;;;;;;;;5086187;28;13661;-72
2022/10/28 13:09:00;;;;;;;;;19.40;17.80;;;;;;;;5087124;28;13553;-73
2022/10/28 13:11:25;;;;;;;;;15.75;15.75;;;;;;;;5086058;28;13596;-73
2022/10/28 13:13:56;;;;;;;;;21.25;18.25;;;;;;;;5105362;28;13715;-73
2022/10/28 13:16:37;;;;;;;;;30.40;28.60;;;;;;;;5105949;28;14374;-73
2022/10/28 13:19:20;;;;;;;;;29.60;29.60;;;;;;;;5006799;28;14225;-72
2022/10/28 13:21:54;;;;;;;;;23.25;22.00;;;;;;;;5044129;28;15282;-71
2022/10/28 13:24:33;;;;;;;;;18.80;18.40;;;;;;;;5044715;28;14334;-72
2022/10/28 13:27:01;;;;;;;;;17.00;15.80;;;;;;;;5044773;28;13645;-72
2022/10/28 13:29:28;;;;;;;;;15.60;15.60;;;;;;;;5044669;28;13555;-72
2022/10/28 13:31:54;;;;;;;;;14.00;14.00;;;;;;;;5044319;28;13568;-72
2022/10/28 13:34:21;;;;;;;;;16.80;16.00;;;;;;;;5044735;28;13571;-72
2022/10/28 13:36:54;;;;;;;;;14.75;14.25;;;;;;;;5030054;28;13569;-74
2022/10/28 13:39:22;;;;;;;;;17.60;14.20;;;;;;;;5026470;28;13538;-72
2022/10/28 13:41:48;;;;;;;;;18.00;16.75;;;;;;;;5028003;28;13598;-71
2022/10/28 13:44:13;;;;;;;;;17.25;16.00;;;;;;;;5035224;28;13632;-71
2022/10/28 13:46:57;;;;;;;;;20.00;15.00;;;;;;;;5034743;28;13626;-71
2022/10/28 13:49:25;;;;;;;;;16.75;16.25;;;;;;;;5042326;28;14317;-71
2022/10/28 13:51:58;;;;;;;;;17.20;16.00;;;;;;;;5044633;28;13597;-72
2022/10/28 13:54:24;;;;;;;;;20.50;18.50;;;;;;;;5046017;28;13614;-71
2022/10/28 13:56:50;;;;;;;;;17.25;15.75;;;;;;;;5042672;28;13564;-71
2022/10/28 13:59:21;;;;;;;;;16.25;16.25;;;;;;;;5043661;28;13655;-72
2022/10/28 14:01:46;;;;;;;;;19.00;16.00;;;;;;;;5024647;28;13591;-72
2022/10/28 14:04:18;;;;;;;;;18.00;14.00;;;;;;;;5025263;28;13582;-71
2022/10/28 14:06:43;;;;;;;;;13.00;13.00;;;;;;;;5024441;28;13538;-72
2022/10/28 14:09:18;;;;;;;;;15.75;14.00;;;;;;;;5023629;28;14335;-73
2022/10/28 14:11:43;;;;;;;;;19.67;18.00;;;;;;;;5033923;28;13565;-73
2022/10/28 14:14:13;;;;;;;;;15.00;14.67;;;;;;;;5044241;28;13511;-72
2022/10/28 14:16:39;;;;;;;;;21.20;15.80;;;;;;;;5045546;28;13664;-72
2022/10/28 14:19:14;;;;;;;;;17.00;14.33;;;;;;;;5045082;28;14485;-73
2022/10/28 14:21:43;;;;;;;;;20.00;17.00;;;;;;;;5048317;28;13525;-73
2022/10/28 14:24:29;;;;;;;;;13.00;12.80;;;;;;;;5045711;28;13770;-73
2022/10/28 14:27:07;;;;;;;;;16.75;14.25;;;;;;;;5040519;28;13574;-72
2022/10/28 14:29:41;;;;;;;;;15.00;15.00;;;;;;;;5021794;28;13606;-73
2022/10/28 14:32:25;;;;;;;;;14.25;14.00;;;;;;;;5006216;28;13725;-73
2022/10/28 14:34:50;;;;;;;;;16.80;14.40;;;;;;;;5006212;28;13612;-72
2022/10/28 14:37:26;;;;;;;;;17.00;16.50;;;;;;;;5030165;28;14415;-73
2022/10/28 14:40:12;;;;;;;;;21.80;19.60;;;;;;;;5038352;28;14015;-74
2022/10/28 14:42:38;;;;;;;;;19.00;17.20;;;;;;;;5045486;28;13567;-75
2022/10/28 14:45:06;;;;;;;;;21.00;18.75;;;;;;;;5045466;28;13689;-73
2022/10/28 14:47:37;;;;;;;;;19.75;18.25;;;;;;;;5045229;28;13634;-75
2022/10/28 14:50:06;;;;;;;;;16.50;15.25;;;;;;;;5035401;28;13679;-72
2022/10/28 14:52:33;;;;;;;;;17.50;16.25;;;;;;;;5025463;28;13605;-74
2022/10/28 14:55:04;;;;;;;;;16.00;15.00;;;;;;;;5025432;28;13758;-73
2022/10/28 14:57:31;;;;;;;;;20.25;19.75;;;;;;;;5025099;28;13486;-72
2022/10/28 15:00:00;;;;;;;;;20.00;18.80;;;;;;;;5025364;28;13592;-72
2022/10/28 15:02:29;;;;;;;;;22.80;21.60;;;;;;;;5045705;28;13638;-75
2022/10/28 15:05:00;;;;;;;;;19.80;17.20;;;;;;;;5045834;28;13591;-75
2022/10/28 15:07:26;;;;;;;;;19.20;17.00;;;;;;;;5032908;28;14378;-75
2022/10/28 15:09:53;;;;;;;;;21.67;18.67;;;;;;;;5024788;28;13859;-75
2022/10/28 15:12:19;;;;;;;;;22.00;20.33;;;;;;;;5033030;28;14463;-75
2022/10/28 15:14:51;;;;;;;;;21.20;17.20;;;;;;;;5026087;28;13614;-79
2022/10/28 15:17:19;;;;;;;;;21.75;20.00;;;;;;;;5025688;28;13563;-78
2022/10/28 15:19:45;;;;;;;;;19.67;18.33;;;;;;;;5025327;28;13638;-79
2022/10/28 15:22:13;;;;;;;;;21.75;20.00;;;;;;;;5017572;28;13634;-73
2022/10/28 15:24:38;;;;;;;;;22.80;20.40;;;;;;;;5013041;28;13650;-74
2022/10/28 15:27:04;;;;;;;;;20.75;19.00;;;;;;;;5015463;28;13636;-77
2022/10/28 15:29:30;;;;;;;;;21.75;18.50;;;;;;;;5015081;28;13704;-79
2022/10/28 15:32:24;;;;;;;;;21.50;20.00;;;;;;;;5016331;28;13596;-77
2022/10/28 15:34:49;;;;;;;;;31.50;24.50;;;;;;;;5015508;28;13619;-77
2022/10/28 15:37:35;;;;;;;;;26.50;25.00;;;;;;;;5014127;28;13619;-76
2022/10/28 15:40:17;;;;;;;;;25.75;23.50;;;;;;;;5015107;28;13632;-78
2022/10/28 15:43:02;;;;;;;;;24.60;21.40;;;;;;;;5015816;28;13601;-77
2022/10/28 15:45:28;;;;;;;;;26.00;21.75;;;;;;;;5014541;28;13689;-77
2022/10/28 15:47:54;;;;;;;;;23.40;21.60;;;;;;;;5014958;28;14471;-77
2022/10/28 15:50:27;;;;;;;;;28.50;23.50;;;;;;;;5016253;28;13591;-78
2022/10/28 15:52:55;;;;;;;;;31.60;30.20;;;;;;;;5020091;28;13625;-77
2022/10/28 15:55:20;;;;;;;;;28.40;24.20;;;;;;;;5024319;28;14471;-76
2022/10/28 15:57:55;;;;;;;;;26.00;26.00;;;;;;;;5028682;28;13608;-77
2022/10/28 16:00:21;;;;;;;;;25.40;21.60;;;;;;;;5027983;28;13633;-77
2022/10/28 16:02:51;;;;;;;;;29.00;26.67;;;;;;;;5013824;28;13607;-76
2022/10/28 16:05:29;;;;;;;;;24.75;23.75;;;;;;;;5024941;28;13840;-77
2022/10/28 16:07:54;;;;;;;;;25.00;25.00;;;;;;;;5027676;28;13816;-78
2022/10/28 16:10:19;;;;;;;;;28.50;23.75;;;;;;;;5027290;28;14261;-75
2022/10/28 16:12:45;;;;;;;;;30.00;24.50;;;;;;;;5025661;28;13688;-75
2022/10/28 16:15:14;;;;;;;;;29.50;27.25;;;;;;;;5024702;28;13604;-76
2022/10/28 16:17:41;;;;;;;;;26.50;24.00;;;;;;;;5026393;28;14413;-76
2022/10/28 16:20:11;;;;;;;;;26.50;25.00;;;;;;;;5024615;28;14531;-73
2022/10/28 16:22:38;;;;;;;;;24.50;22.00;;;;;;;;5025737;28;13539;-75
2022/10/28 16:25:13;;;;;;;;;22.00;22.00;;;;;;;;5021605;28;14471;-73
2022/10/28 16:27:39;;;;;;;;;29.60;24.20;;;;;;;;5023310;28;13552;-74
2022/10/28 16:30:05;;;;;;;;;28.00;26.00;;;;;;;;5024423;28;13635;-75
2022/10/28 16:32:36;;;;;;;;;27.50;26.00;;;;;;;;5026648;28;13778;-74
2022/10/28 16:35:02;;;;;;;;;29.80;27.40;;;;;;;;5028749;28;13644;-82
2022/10/28 16:37:29;;;;;;;;;21.75;19.00;;;;;;;;5028641;28;13577;-81
2022/10/28 16:39:54;;;;;;;;;21.00;18.50;;;;;;;;5028930;28;13697;-73
2022/10/28 16:42:20;;;;;;;;;26.25;25.50;;;;;;;;5027177;28;14472;-74
2022/10/28 16:44:46;;;;;;;;;23.50;22.50;;;;;;;;5021066;28;13643;-73
2022/10/28 16:47:12;;;;;;;;;27.50;24.75;;;;;;;;5016002;28;14320;-74
2022/10/28 16:49:38;;;;;;;;;30.50;28.00;;;;;;;;5015424;28;14399;-75
2022/10/28 16:52:04;;;;;;;;;30.50;25.50;;;;;;;;5018585;28;13633;-76
2022/10/28 16:54:29;;;;;;;;;22.75;21.75;;;;;;;;5018269;28;13616;-74
2022/10/28 16:56:54;;;;;;;;;25.00;24.25;;;;;;;;5017829;28;14716;-75
2022/10/28 16:59:19;;;;;;;;;24.25;22.25;;;;;;;;5013384;28;13685;-73
2022/10/28 17:01:45;;;;;;;;;28.33;27.00;;;;;;;;5017323;28;15147;-70
2022/10/28 17:04:11;;;;;;;;;29.00;25.50;;;;;;;;5015963;28;13760;-71
2022/10/28 17:06:36;;;;;;;;;29.75;23.25;;;;;;;;5015229;28;13678;-73
2022/10/28 17:09:01;;;;;;;;;29.75;29.75;;;;;;;;5015196;28;14408;-74
2022/10/28 17:11:26;;;;;;;;;31.00;26.00;;;;;;;;5015495;28;13733;-74
2022/10/28 17:13:52;;;;;;;;;30.75;28.75;;;;;;;;5023426;28;13618;-73
2022/10/28 17:16:17;;;;;;;;;28.00;27.33;;;;;;;;5016321;28;13734;-73
2022/10/28 17:18:43;;;;;;;;;40.67;34.00;;;;;;;;5011334;28;13627;-73
2022/10/28 17:21:08;;;;;;;;;30.40;28.60;;;;;;;;5008023;28;13620;-74
2022/10/28 17:23:33;;;;;;;;;34.75;30.75;;;;;;;;5008065;28;13607;-75
2022/10/28 17:26:00;;;;;;;;;34.75;28.50;;;;;;;;5006625;28;13616;-75
2022/10/28 17:28:25;;;;;;;;;35.00;31.80;;;;;;;;5007725;28;13659;-72
2022/10/28 17:30:50;;;;;;;;;35.00;32.00;;;;;;;;5007556;28;13638;-73
2022/10/28 17:33:16;;;;;;;;;33.33;30.67;;;;;;;;5023125;28;13605;-77
2022/10/28 17:35:44;;;;;;;;;37.67;34.00;;;;;;;;5027059;28;13553;-75
2022/10/28 17:38:09;;;;;;;;;36.20;32.40;;;;;;;;5025717;28;13631;-75
2022/10/28 17:40:34;;;;;;;;;41.67;33.00;;;;;;;;5026969;28;13622;-75
2022/10/28 17:42:59;;;;;;;;;41.25;34.00;;;;;;;;5039136;28;13770;-75
2022/10/28 17:45:25;;;;;;;;;40.00;32.00;;;;;;;;5046728;28;13602;-75
2022/10/28 17:47:50;;;;;;;;;36.25;33.50;;;;;;;;5046962;28;13662;-74
2022/10/28 17:50:15;;;;;;;;;36.50;34.00;;;;;;;;5046572;28;13649;-76
2022/10/28 17:52:41;;;;;;;;;40.33;33.33;;;;;;;;5046798;28;13611;-75
2022/10/28 17:55:06;;;;;;;;;42.00;35.50;;;;;;;;5045711;28;13562;-75
2022/10/28 17:57:31;;;;;;;;;35.00;32.00;;;;;;;;5046868;28;13624;-75
2022/10/28 17:59:57;;;;;;;;;42.25;35.00;;;;;;;;5046201;28;14524;-74
2022/10/28 18:02:22;;;;;;;;;41.67;35.00;;;;;;;;5046066;28;13586;-76
2022/10/28 18:04:47;;;;;;;;;34.75;31.00;;;;;;;;5046794;28;14349;-76
2022/10/28 18:07:13;;;;;;;;;38.25;33.00;;;;;;;;5046446;28;13564;-76
2022/10/28 18:09:39;;;;;;;;;40.33;35.00;;;;;;;;5046674;28;14244;-75
2022/10/28 18:12:05;;;;;;;;;38.00;34.00;;;;;;;;5026195;28;13753;-76
2022/10/28 18:14:30;;;;;;;;;34.25;31.25;;;;;;;;5045049;28;14389;-76
2022/10/28 18:16:57;;;;;;;;;38.25;32.00;;;;;;;;5034010;28;13600;-76
2022/10/28 18:19:22;;;;;;;;;39.25;35.25;;;;;;;;5039249;28;13682;-76
2022/10/28 18:21:48;;;;;;;;;37.33;35.00;;;;;;;;5065226;28;13669;-75
2022/10/28 18:24:13;;;;;;;;;33.75;31.75;;;;;;;;5066451;28;13600;-75
2022/10/28 18:26:39;;;;;;;;;35.25;33.25;;;;;;;;5066484;28;13538;-77
2022/10/28 18:29:08;;;;;;;;;39.00;32.00;;;;;;;;5065732;28;14259;-76
2022/10/28 18:31:33;;;;;;;;;34.25;32.00;;;;;;;;5054173;28;13703;-74
2022/10/28 18:33:59;;;;;;;;;38.50;33.50;;;;;;;;5044992;28;13675;-76
2022/10/28 18:36:25;;;;;;;;;34.50;32.00;;;;;;;;5042180;28;13601;-75
2022/10/28 18:38:50;;;;;;;;;35.00;32.00;;;;;;;;5044569;28;13646;-76
2022/10/28 18:41:17;;;;;;;;;39.25;33.75;;;;;;;;5044243;28;13567;-75
2022/10/28 18:43:42;;;;;;;;;36.20;35.00;;;;;;;;5045777;28;13664;-75
2022/10/28 18:46:07;;;;;;;;;37.25;33.75;;;;;;;;5044831;28;13594;-77
2022/10/28 18:48:33;;;;;;;;;42.33;36.67;;;;;;;;5044718;28;13590;-75
2022/10/28 18:50:59;;;;;;;;;32.67;31.67;;;;;;;;5044870;28;13588;-79
2022/10/28 18:53:25;;;;;;;;;39.25;34.25;;;;;;;;5041552;28;14455;-75
2022/10/28 18:55:50;;;;;;;;;40.50;35.00;;;;;;;;5043655;28;13710;-79
2022/10/28 18:58:16;;;;;;;;;37.75;33.75;;;;;;;;5042976;28;13567;-77
2022/10/28 19:00:41;;;;;;;;;41.33;36.33;;;;;;;;5044331;28;13772;-79
2022/10/28 19:03:14;;;;;;;;;41.00;36.00;;;;;;;;5053363;28;13678;-76
2022/10/28 19:05:39;;;;;;;;;40.75;35.50;;;;;;;;5048953;28;13689;-77
2022/10/28 19:08:04;;;;;;;;;41.00;34.00;;;;;;;;5043802;28;13682;-75
2022/10/28 19:10:29;;;;;;;;;37.67;34.00;;;;;;;;5039379;28;13668;-76
2022/10/28 19:12:55;;;;;;;;;42.00;36.50;;;;;;;;5045549;28;13589;-78
2022/10/28 19:15:20;;;;;;;;;43.00;32.75;;;;;;;;5043316;28;13616;-75
2022/10/28 19:17:45;;;;;;;;;42.00;34.00;;;;;;;;5044535;28;13692;-78
2022/10/28 19:20:11;;;;;;;;;39.50;34.25;;;;;;;;5043380;28;13597;-78
2022/10/28 19:22:36;;;;;;;;;37.33;33.33;;;;;;;;5044243;28;13584;-79
2022/10/28 19:25:01;;;;;;;;;43.00;34.25;;;;;;;;5041671;28;13838;-75
2022/10/28 19:27:26;;;;;;;;;33.50;31.50;;;;;;;;5045439;28;13516;-75
2022/10/28 19:29:52;;;;;;;;;37.00;33.25;;;;;;;;5043694;28;13718;-76
2022/10/28 19:32:17;;;;;;;;;35.25;33.00;;;;;;;;5043054;28;13596;-76
2022/10/28 19:34:42;;;;;;;;;40.67;33.67;;;;;;;;5043462;28;13590;-76
2022/10/28 19:37:07;;;;;;;;;60.33;48.33;;;;;;;;5043744;28;13683;-75
2022/10/28 19:39:33;;;;;;;;;40.25;36.00;;;;;;;;5045332;28;14374;-75
2022/10/28 19:41:58;;;;;;;;;44.50;36.75;;;;;;;;5042578;28;13617;-76
2022/10/28 19:44:23;;;;;;;;;37.75;32.50;;;;;;;;5042700;28;13851;-75
2022/10/28 19:46:48;;;;;;;;;36.00;33.00;;;;;;;;5046311;28;14350;-76
2022/10/28 19:49:14;;;;;;;;;34.00;30.33;;;;;;;;5044287;28;13576;-74
2022/10/28 19:51:40;;;;;;;;;40.67;35.00;;;;;;;;5044630;28;13570;-75
2022/10/28 19:54:09;;;;;;;;;37.60;33.00;;;;;;;;5042832;28;13574;-75
2022/10/28 19:56:35;;;;;;;;;39.00;33.50;;;;;;;;5044325;28;13685;-74
2022/10/28 19:59:01;;;;;;;;;62.75;51.00;;;;;;;;5044389;28;13875;-75
2022/10/28 20:01:27;;;;;;;;;38.25;31.75;;;;;;;;5041324;28;13596;-75
2022/10/28 20:03:53;;;;;;;;;37.60;33.20;;;;;;;;5043430;28;13567;-77
2022/10/28 20:06:20;;;;;;;;;36.50;33.00;;;;;;;;5045755;28;13600;-78
2022/10/28 20:08:46;;;;;;;;;38.25;32.25;;;;;;;;5047143;28;13575;-78
2022/10/28 20:11:22;;;;;;;;;38.25;33.25;;;;;;;;5046271;28;13604;-76
2022/10/28 20:13:59;;;;;;;;;35.75;32.00;;;;;;;;5069005;28;14426;-76
2022/10/28 20:16:25;;;;;;;;;32.40;30.00;;;;;;;;5047247;28;14362;-76
2022/10/28 20:18:51;;;;;;;;;34.75;31.00;;;;;;;;5045959;28;13554;-77
2022/10/28 20:21:18;;;;;;;;;34.75;32.00;;;;;;;;5047289;28;13634;-73
2022/10/28 20:23:45;;;;;;;;;33.40;31.80;;;;;;;;5046824;28;13565;-76
2022/10/28 20:26:11;;;;;;;;;29.50;28.75;;;;;;;;5048238;28;14406;-75
2022/10/28 20:28:36;;;;;;;;;38.20;34.00;;;;;;;;5047040;28;13602;-76
2022/10/28 20:31:08;;;;;;;;;34.00;31.00;;;;;;;;5047114;28;13586;-76
2022/10/28 20:33:37;;;;;;;;;36.00;31.25;;;;;;;;5047305;28;13565;-74
2022/10/28 20:36:03;;;;;;;;;35.40;33.20;;;;;;;;5046913;28;13601;-73
2022/10/28 20:38:29;;;;;;;;;34.20;31.80;;;;;;;;5046535;28;13577;-74
2022/10/28 20:40:58;;;;;;;;;33.00;30.50;;;;;;;;5046747;28;13567;-74
2022/10/28 20:43:24;;;;;;;;;33.50;31.00;;;;;;;;5046793;28;13558;-77
2022/10/28 20:45:50;;;;;;;;;36.80;33.40;;;;;;;;5046450;28;14277;-73
2022/10/28 20:48:15;;;;;;;;;34.00;30.75;;;;;;;;5046700;28;14688;-75
2022/10/28 20:50:47;;;;;;;;;33.00;32.00;;;;;;;;5046858;28;13755;-76
2022/10/28 20:53:12;;;;;;;;;31.80;30.00;;;;;;;;5046674;28;13688;-76
2022/10/28 20:55:43;;;;;;;;;32.75;31.75;;;;;;;;5047771;28;13584;-75
2022/10/28 20:58:08;;;;;;;;;34.20;31.00;;;;;;;;5047818;28;14462;-74
2022/10/28 21:00:33;;;;;;;;;34.00;30.00;;;;;;;;5047553;28;13713;-74
2022/10/28 21:02:59;;;;;;;;;35.67;32.33;;;;;;;;5046107;28;13581;-75
2022/10/28 21:05:24;;;;;;;;;42.00;31.00;;;;;;;;5047953;28;13605;-74
2022/10/28 21:07:49;;;;;;;;;38.33;34.33;;;;;;;;5047313;28;13643;-74
2022/10/28 21:10:18;;;;;;;;;33.00;28.75;;;;;;;;5046790;28;13605;-74
2022/10/28 21:12:43;;;;;;;;;40.00;34.00;;;;;;;;5046182;28;13598;-74
2022/10/28 21:15:09;;;;;;;;;33.50;30.00;;;;;;;;5046293;28;13409;-75
2022/10/28 21:17:34;;;;;;;;;32.00;28.25;;;;;;;;5046996;28;13559;-75
2022/10/28 21:20:00;;;;;;;;;33.25;31.00;;;;;;;;5046627;28;13601;-75
2022/10/28 21:22:25;;;;;;;;;27.00;27.00;;;;;;;;5056144;28;13612;-75
2022/10/28 21:24:51;;;;;;;;;35.00;29.75;;;;;;;;5054260;28;13739;-74
2022/10/28 21:27:16;;;;;;;;;30.25;30.00;;;;;;;;5047316;28;13605;-74
2022/10/28 21:29:41;;;;;;;;;28.00;28.00;;;;;;;;5047044;28;14284;-74
2022/10/28 21:32:07;;;;;;;;;31.00;31.00;;;;;;;;5046857;28;13678;-73
2022/10/28 21:34:32;;;;;;;;;30.25;28.25;;;;;;;;5046992;28;13541;-75
2022/10/28 21:36:57;;;;;;;;;27.25;26.00;;;;;;;;5046797;28;14316;-74
2022/10/28 21:39:22;;;;;;;;;26.00;25.00;;;;;;;;5046756;28;13640;-74
2022/10/28 21:41:48;;;;;;;;;25.00;21.25;;;;;;;;5046826;28;13656;-73
2022/10/28 21:44:13;;;;;;;;;29.25;25.25;;;;;;;;5046882;28;13600;-75
2022/10/28 21:46:38;;;;;;;;;27.33;25.00;;;;;;;;5047376;28;13700;-75
2022/10/28 21:49:04;;;;;;;;;33.25;30.50;;;;;;;;5047168;28;13551;-76
2022/10/28 21:51:29;;;;;;;;;34.25;31.00;;;;;;;;5045830;28;13669;-76
2022/10/28 21:53:55;;;;;;;;;35.00;27.00;;;;;;;;5045857;28;13700;-75
2022/10/28 21:56:20;;;;;;;;;32.00;30.33;;;;;;;;5047249;28;13617;-74
2022/10/28 21:58:46;;;;;;;;;34.67;33.00;;;;;;;;5046713;28;13587;-75
2022/10/28 22:01:16;;;;;;;;;39.25;35.00;;;;;;;;5046953;28;13577;-75
2022/10/28 22:03:41;;;;;;;;;30.00;29.80;;;;;;;;5046860;28;13624;-75
2022/10/28 22:06:07;;;;;;;;;31.50;29.00;;;;;;;;5046808;28;13641;-75
2022/10/28 22:08:33;;;;;;;;;34.50;28.75;;;;;;;;5047050;28;14355;-75
2022/10/28 22:10:59;;;;;;;;;22.25;22.00;;;;;;;;5047347;28;14363;-75
2022/10/28 22:13:25;;;;;;;;;33.25;30.50;;;;;;;;5045556;28;13588;-75
2022/10/28 22:16:01;;;;;;;;;23.33;23.33;;;;;;;;5045037;28;13743;-74
2022/10/28 22:18:27;;;;;;;;;25.60;25.00;;;;;;;;5045865;28;13592;-73
